createdAt,value
2023-02-24T00:02:06.100Z,66.36
2023-02-24T00:04:38.404Z,66.44
2023-02-24T00:07:06.549Z,66.27
2023-02-24T00:09:33.712Z,65.95
2023-02-24T00:12:12.991Z,66.16
2023-02-24T00:14:43.748Z,66.08
2023-02-24T00:17:14.374Z,66.36
2023-02-24T00:19:41.590Z,66.10
2023-02-24T00:22:08.843Z,66.27
2023-02-24T00:24:36.162Z,65.88
2023-02-24T00:27:11.363Z,65.95
2023-02-24T00:29:39.973Z,65.78
2023-02-24T00:32:08.018Z,65.96
2023-02-24T00:34:37.530Z,65.83
2023-02-24T00:37:08.553Z,65.77
2023-02-24T00:39:37.059Z,65.77
2023-02-24T00:42:06.031Z,66.05
2023-02-24T00:44:36.910Z,66.10
2023-02-24T00:47:06.667Z,66.07
2023-02-24T00:49:41.944Z,66.04
2023-02-24T00:52:13.620Z,66.02
2023-02-24T00:54:42.669Z,65.89
2023-02-24T00:57:10.018Z,66.43
2023-02-24T00:59:37.063Z,66.27
2023-02-24T01:02:06.920Z,66.04
2023-02-24T01:04:34.628Z,66.11
2023-02-24T01:07:01.747Z,65.95
2023-02-24T01:09:31.553Z,65.90
2023-02-24T01:12:17.358Z,66.11
2023-02-24T01:14:49.645Z,66.29
2023-02-24T01:17:19.134Z,65.98
2023-02-24T01:19:49.046Z,66.02
2023-02-24T01:22:18.767Z,66.09
2023-02-24T01:24:45.751Z,66.22
2023-02-24T01:27:14.934Z,65.58
2023-02-24T01:29:41.875Z,65.68
2023-02-24T01:32:16.960Z,65.76
2023-02-24T01:34:44.053Z,65.49
2023-02-24T01:37:16.156Z,65.75
2023-02-24T01:39:44.666Z,65.81
2023-02-24T01:42:16.809Z,65.83
2023-02-24T01:44:43.603Z,65.73
2023-02-24T01:47:11.416Z,65.38
2023-02-24T01:49:43.648Z,65.38
2023-02-24T01:52:25.401Z,65.27
2023-02-24T01:55:07.184Z,65.35
2023-02-24T01:57:38.622Z,65.05
2023-02-24T02:00:11.155Z,65.36
2023-02-24T02:02:47.370Z,65.46
2023-02-24T02:05:14.848Z,65.56
2023-02-24T02:07:43.468Z,65.43
2023-02-24T02:10:11.416Z,65.27
2023-02-24T02:12:44.361Z,65.19
2023-02-24T02:15:16.676Z,65.22
2023-02-24T02:18:11.852Z,65.05
2023-02-24T02:21:08.769Z,65.26
2023-02-24T02:24:07.572Z,65.34
2023-02-24T02:27:20.843Z,65.47
2023-02-24T02:30:36.089Z,65.15
2023-02-24T02:33:44.091Z,65.38
2023-02-24T02:36:34.230Z,65.74
2023-02-24T02:39:15.822Z,65.27
2023-02-24T02:41:54.843Z,65.40
2023-02-24T02:44:47.559Z,65.20
2023-02-24T02:47:28.217Z,65.40
2023-02-24T02:50:08.197Z,65.31
2023-02-24T02:52:43.290Z,64.96
2023-02-24T02:55:15.999Z,64.87
2023-02-24T02:57:47.831Z,64.68
2023-02-24T03:00:23.098Z,64.77
2023-02-24T03:03:03.307Z,64.94
2023-02-24T03:05:37.150Z,64.57
2023-02-24T03:08:11.246Z,64.57
2023-02-24T03:10:41.686Z,64.68
2023-02-24T03:13:13.215Z,64.46
2023-02-24T03:15:44.697Z,64.67
2023-02-24T03:18:19.984Z,64.14
2023-02-24T03:20:57.229Z,64.41
2023-02-24T03:23:27.684Z,64.48
2023-02-24T03:26:29.895Z,64.50
2023-02-24T03:29:24.733Z,64.35
2023-02-24T03:31:54.165Z,64.90
2023-02-24T03:35:00.066Z,64.79
2023-02-24T03:37:29.846Z,64.90
2023-02-24T03:40:12.040Z,64.51
2023-02-24T03:42:44.359Z,64.51
2023-02-24T03:45:12.070Z,64.34
2023-02-24T03:47:40.616Z,64.46
2023-02-24T03:50:17.821Z,64.28
2023-02-24T03:53:01.422Z,64.46
2023-02-24T03:55:59.507Z,64.18
2023-02-24T03:58:36.846Z,64.25
2023-02-24T04:01:57.783Z,64.42
2023-02-24T04:04:37.611Z,64.44
2023-02-24T04:07:40.684Z,64.66
2023-02-24T04:10:24.179Z,64.14
2023-02-24T04:12:58.255Z,64.30
2023-02-24T04:15:43.821Z,64.12
2023-02-24T04:18:20.327Z,64.13
2023-02-24T04:20:50.985Z,64.20
2023-02-24T04:23:23.550Z,64.14
2023-02-24T04:25:53.150Z,64.01
2023-02-24T04:28:25.096Z,64.00
2023-02-24T04:30:58.435Z,63.67
2023-02-24T04:33:25.615Z,63.82
2023-02-24T04:35:53.376Z,63.85
2023-02-24T04:38:20.450Z,63.72
2023-02-24T04:40:49.707Z,63.77
2023-02-24T04:43:16.695Z,63.34
2023-02-24T04:45:44.194Z,63.64
2023-02-24T04:48:14.313Z,63.54
2023-02-24T04:50:43.485Z,63.27
2023-02-24T04:53:14.700Z,63.37
2023-02-24T04:55:48.585Z,63.19
2023-02-24T04:58:22.072Z,63.52
2023-02-24T05:00:52.579Z,63.43
2023-02-24T05:03:22.353Z,62.92
2023-02-24T05:05:52.558Z,62.95
2023-02-24T05:08:20.068Z,62.60
2023-02-24T05:10:47.470Z,62.58
2023-02-24T05:13:26.806Z,62.63
2023-02-24T05:16:08.206Z,62.53
2023-02-24T05:18:38.628Z,62.64
2023-02-24T05:21:30.688Z,62.53
2023-02-24T05:24:06.390Z,62.72
2023-02-24T05:26:36.080Z,62.33
2023-02-24T05:29:05.443Z,62.50
2023-02-24T05:31:32.281Z,62.38
2023-02-24T05:34:03.688Z,62.25
2023-02-24T05:36:40.425Z,62.26
2023-02-24T05:39:12.009Z,62.19
2023-02-24T05:41:42.202Z,62.16
2023-02-24T05:44:14.114Z,61.91
2023-02-24T05:46:44.535Z,61.92
2023-02-24T05:49:26.853Z,62.11
2023-02-24T05:52:00.730Z,62.21
2023-02-24T05:54:40.065Z,62.19
2023-02-24T05:57:11.931Z,61.89
2023-02-24T05:59:41.005Z,62.10
2023-02-24T06:02:12.912Z,62.13
2023-02-24T06:04:54.027Z,61.98
2023-02-24T06:07:27.710Z,62.04
2023-02-24T06:09:58.945Z,62.34
2023-02-24T06:12:32.196Z,62.18
2023-02-24T06:14:59.383Z,62.06
2023-02-24T06:17:27.598Z,62.08
2023-02-24T06:19:54.871Z,62.38
2023-02-24T06:22:24.998Z,62.20
2023-02-24T06:24:54.905Z,62.11
2023-02-24T06:27:24.455Z,62.02
2023-02-24T06:29:53.873Z,62.15
2023-02-24T06:32:24.837Z,62.17
2023-02-24T06:34:53.730Z,62.21
2023-02-24T06:37:20.753Z,62.10
2023-02-24T06:39:47.957Z,62.25
2023-02-24T06:42:14.813Z,62.16
2023-02-24T06:44:42.116Z,62.06
2023-02-24T06:47:17.775Z,62.08
2023-02-24T06:49:44.555Z,62.22
2023-02-24T06:52:18.200Z,62.17
2023-02-24T06:54:47.662Z,62.04
2023-02-24T06:57:14.474Z,62.26
2023-02-24T06:59:48.743Z,62.25
2023-02-24T07:02:17.523Z,62.03
2023-02-24T07:04:44.360Z,62.01
2023-02-24T07:07:14.082Z,61.92
2023-02-24T07:09:42.421Z,61.79
2023-02-24T07:12:11.048Z,61.94
2023-02-24T07:14:40.345Z,61.92
2023-02-24T07:17:08.427Z,61.74
2023-02-24T07:19:35.275Z,61.56
2023-02-24T07:22:03.641Z,62.00
2023-02-24T07:24:36.686Z,61.94
2023-02-24T07:27:12.548Z,61.84
2023-02-24T07:29:39.759Z,61.75
2023-02-24T07:32:09.382Z,61.85
2023-02-24T07:34:39.916Z,61.64
2023-02-24T07:37:09.463Z,61.75
2023-02-24T07:39:39.077Z,61.70
2023-02-24T07:42:08.442Z,61.72
2023-02-24T07:44:35.223Z,61.83
2023-02-24T07:47:07.524Z,61.43
2023-02-24T07:49:35.342Z,61.52
2023-02-24T07:52:02.105Z,61.66
2023-02-24T07:54:30.571Z,61.66
2023-02-24T07:56:59.153Z,61.64
2023-02-24T07:59:33.158Z,61.25
2023-02-24T08:02:04.520Z,61.27
2023-02-24T08:04:39.559Z,61.28
2023-02-24T08:07:12.980Z,61.35
2023-02-24T08:09:46.041Z,61.59
2023-02-24T08:12:18.729Z,61.58
2023-02-24T08:14:50.752Z,61.22
2023-02-24T08:17:26.773Z,61.21
2023-02-24T08:20:21.821Z,61.25
2023-02-24T08:22:53.690Z,62.32
2023-02-24T08:25:35.306Z,62.04
2023-02-24T08:28:09.278Z,61.86
2023-02-24T08:30:45.274Z,61.34
2023-02-24T08:33:22.935Z,61.62
2023-02-24T08:36:00.820Z,61.46
2023-02-24T08:38:40.330Z,61.60
2023-02-24T08:41:17.463Z,61.33
2023-02-24T08:43:46.387Z,61.49
2023-02-24T08:46:18.396Z,61.45
2023-02-24T08:48:55.901Z,61.48
2023-02-24T08:51:34.831Z,61.75
2023-02-24T08:54:15.396Z,61.90
2023-02-24T08:56:48.995Z,61.96
2023-02-24T08:59:36.914Z,61.94
2023-02-24T09:02:23.117Z,62.13
2023-02-24T09:05:05.264Z,62.44
2023-02-24T09:07:36.643Z,62.40
2023-02-24T09:10:11.391Z,62.64
2023-02-24T09:12:41.246Z,62.52
2023-02-24T09:15:10.179Z,62.90
2023-02-24T09:17:40.215Z,62.91
2023-02-24T09:20:35.969Z,63.20
2023-02-24T09:23:04.099Z,63.23
2023-02-24T09:25:44.628Z,63.26
2023-02-24T09:28:18.042Z,63.29
2023-02-24T09:30:58.574Z,63.55
2023-02-24T09:33:41.584Z,63.76
2023-02-24T09:36:20.083Z,63.74
2023-02-24T09:39:02.186Z,63.77
2023-02-24T09:41:53.487Z,64.12
2023-02-24T09:44:45.303Z,64.09
2023-02-24T09:47:40.333Z,64.16
2023-02-24T09:50:55.525Z,64.30
2023-02-24T09:53:18.220Z,64.65
2023-02-24T09:56:06.610Z,64.37
2023-02-24T09:58:58.544Z,64.40
2023-02-24T10:02:02.096Z,64.27
2023-02-24T10:05:06.946Z,64.75
2023-02-24T10:07:40.492Z,64.67
2023-02-24T10:10:35.741Z,64.79
2023-02-24T10:13:20.865Z,64.94
2023-02-24T10:15:58.621Z,65.35
2023-02-24T10:18:30.050Z,64.84
2023-02-24T10:21:30.596Z,65.10
2023-02-24T10:24:37.032Z,65.09
2023-02-24T10:27:23.946Z,65.00
2023-02-24T10:30:27.886Z,65.00
2023-02-24T10:33:00.501Z,65.26
2023-02-24T10:35:33.557Z,65.40
2023-02-24T10:38:05.721Z,65.56
2023-02-24T10:40:46.811Z,65.41
2023-02-24T10:43:30.277Z,65.53
2023-02-24T10:46:06.245Z,65.64
2023-02-24T10:48:41.707Z,65.75
2023-02-24T10:51:22.190Z,65.73
2023-02-24T10:54:09.859Z,65.55
2023-02-24T10:56:44.293Z,65.73
2023-02-24T10:59:24.373Z,65.62
2023-02-24T11:02:24.530Z,65.84
2023-02-24T11:05:04.361Z,66.02
2023-02-24T11:07:53.639Z,66.20
2023-02-24T11:10:32.442Z,66.28
2023-02-24T11:13:33.551Z,66.28
2023-02-24T11:16:20.031Z,66.26
2023-02-24T11:18:50.033Z,66.50
2023-02-24T11:21:17.849Z,66.39
2023-02-24T11:23:49.269Z,66.42
2023-02-24T11:26:22.062Z,66.32
2023-02-24T11:29:30.824Z,66.46
2023-02-24T11:32:33.203Z,66.39
2023-02-24T11:35:27.321Z,66.50
2023-02-24T11:38:27.731Z,66.62
2023-02-24T11:41:37.961Z,66.61
2023-02-24T11:44:19.797Z,66.34
2023-02-24T11:46:53.115Z,66.60
2023-02-24T11:49:50.073Z,66.81
2023-02-24T11:52:30.313Z,66.89
2023-02-24T11:55:00.875Z,66.84
2023-02-24T11:57:45.662Z,66.99
2023-02-24T12:00:27.914Z,67.00
2023-02-24T12:03:13.016Z,66.81
2023-02-24T12:05:52.792Z,66.76
2023-02-24T12:08:35.019Z,66.71
2023-02-24T12:11:57.515Z,66.93
2023-02-24T12:14:47.976Z,66.83
2023-02-24T12:17:39.861Z,66.72
2023-02-24T12:20:31.121Z,66.84
2023-02-24T12:23:22.993Z,66.72
2023-02-24T12:26:19.882Z,67.08
2023-02-24T12:29:18.627Z,66.91
2023-02-24T12:32:23.203Z,66.83
2023-02-24T12:35:13.859Z,66.85
2023-02-24T12:38:31.146Z,67.33
2023-02-24T12:41:14.572Z,67.19
2023-02-24T12:43:47.029Z,67.45
2023-02-24T12:46:30.887Z,67.16
2023-02-24T12:49:25.535Z,67.39
2023-02-24T12:52:11.239Z,67.37
2023-02-24T12:54:53.531Z,67.41
2023-02-24T12:57:37.116Z,67.27
2023-02-24T13:00:37.243Z,67.49
2023-02-24T13:03:30.767Z,67.40
2023-02-24T13:06:27.064Z,67.27
2023-02-24T13:09:02.787Z,67.53
2023-02-24T13:11:42.937Z,67.35
2023-02-24T13:14:27.152Z,67.50
2023-02-24T13:17:17.555Z,67.51
2023-02-24T13:19:45.907Z,67.72
2023-02-24T13:22:13.591Z,67.37
2023-02-24T13:24:53.871Z,67.54
2023-02-24T13:27:26.310Z,67.50
2023-02-24T13:29:57.839Z,67.52
2023-02-24T13:32:29.123Z,67.75
2023-02-24T13:35:05.996Z,67.74
2023-02-24T13:37:37.523Z,67.68
2023-02-24T13:40:16.562Z,67.63
2023-02-24T13:42:57.379Z,67.59
2023-02-24T13:45:29.437Z,67.84
2023-02-24T13:48:29.489Z,68.02
2023-02-24T13:51:17.959Z,68.27
2023-02-24T13:54:08.926Z,67.97
2023-02-24T13:57:16.637Z,67.98
2023-02-24T14:00:10.043Z,68.18
2023-02-24T14:02:42.877Z,68.06
2023-02-24T14:05:33.116Z,68.16
2023-02-24T14:08:01.122Z,68.44
2023-02-24T14:10:31.511Z,68.43
2023-02-24T14:13:16.064Z,68.43
2023-02-24T14:15:45.188Z,68.51
2023-02-24T14:18:29.902Z,68.40
2023-02-24T14:20:58.094Z,68.90
2023-02-24T14:23:33.993Z,68.70
2023-02-24T14:26:13.812Z,68.79
2023-02-24T14:28:41.863Z,68.59
2023-02-24T14:31:16.085Z,68.60
2023-02-24T14:33:45.271Z,68.62
2023-02-24T14:36:21.018Z,68.90
2023-02-24T14:39:09.842Z,68.86
2023-02-24T14:41:37.101Z,68.76
2023-02-24T14:44:27.519Z,68.66
2023-02-24T14:47:00.160Z,68.69
2023-02-24T14:49:35.587Z,68.66
2023-02-24T14:52:24.180Z,68.73
2023-02-24T14:55:03.598Z,68.95
2023-02-24T14:57:58.685Z,68.79
2023-02-24T15:00:31.232Z,68.68
2023-02-24T15:03:22.638Z,68.79
2023-02-24T15:05:54.613Z,68.67
2023-02-24T15:08:33.923Z,68.98
2023-02-24T15:11:10.127Z,68.62
2023-02-24T15:13:47.712Z,68.78
2023-02-24T15:16:25.943Z,69.04
2023-02-24T15:18:56.130Z,68.90
2023-02-24T15:21:39.681Z,69.15
2023-02-24T15:24:34.128Z,69.18
2023-02-24T15:27:23.638Z,69.13
2023-02-24T15:30:05.643Z,69.16
2023-02-24T15:32:35.010Z,69.33
2023-02-24T15:35:02.396Z,69.32
2023-02-24T15:37:41.837Z,69.33
2023-02-24T15:40:29.564Z,69.34
2023-02-24T15:43:08.950Z,69.29
2023-02-24T15:45:38.820Z,69.29
2023-02-24T15:48:22.817Z,69.08
2023-02-24T15:50:52.797Z,69.30
2023-02-24T15:53:19.629Z,69.31
2023-02-24T15:55:46.477Z,69.14
2023-02-24T15:58:25.603Z,69.02
2023-02-24T16:00:52.609Z,69.46
2023-02-24T16:03:19.551Z,69.25
2023-02-24T16:05:46.431Z,69.22
2023-02-24T16:08:19.175Z,69.09
2023-02-24T16:10:46.295Z,69.25
2023-02-24T16:13:25.381Z,69.20
2023-02-24T16:15:53.439Z,69.25
2023-02-24T16:18:23.388Z,69.19
2023-02-24T16:20:55.184Z,69.23
2023-02-24T16:23:25.354Z,69.38
2023-02-24T16:25:57.422Z,69.51
2023-02-24T16:28:24.912Z,69.24
2023-02-24T16:30:52.644Z,69.24
2023-02-24T16:33:22.454Z,69.49
2023-02-24T16:35:55.382Z,69.56
2023-02-24T16:38:26.463Z,69.37
2023-02-24T16:40:54.566Z,69.33
2023-02-24T16:43:21.480Z,69.35
2023-02-24T16:45:48.665Z,69.37
2023-02-24T16:48:24.299Z,69.33
2023-02-24T16:50:51.291Z,69.49
2023-02-24T16:53:22.720Z,68.93
2023-02-24T16:55:50.613Z,69.17
2023-02-24T16:58:17.790Z,69.30
2023-02-24T17:00:48.834Z,69.49
2023-02-24T17:03:25.715Z,69.39
2023-02-24T17:05:53.401Z,69.46
2023-02-24T17:08:20.865Z,69.35
2023-02-24T17:10:48.248Z,69.40
2023-02-24T17:13:19.289Z,69.52
2023-02-24T17:15:46.538Z,69.33
2023-02-24T17:18:13.580Z,69.46
2023-02-24T17:20:42.315Z,69.61
2023-02-24T17:23:11.372Z,69.65
2023-02-24T17:25:38.338Z,69.68
2023-02-24T17:28:06.446Z,69.49
2023-02-24T17:30:35.451Z,69.47
2023-02-24T17:33:03.622Z,69.74
2023-02-24T17:35:30.453Z,69.58
2023-02-24T17:37:57.435Z,69.87
2023-02-24T17:40:25.005Z,69.57
2023-02-24T17:42:51.889Z,69.79
2023-02-24T17:45:18.778Z,69.77
2023-02-24T17:47:45.687Z,69.73
2023-02-24T17:50:13.297Z,69.75
2023-02-24T17:52:40.776Z,69.48
2023-02-24T17:55:08.665Z,69.36
2023-02-24T17:57:36.344Z,69.66
2023-02-24T18:00:05.697Z,69.58
2023-02-24T18:02:32.713Z,69.72
2023-02-24T18:05:02.180Z,70.00
2023-02-24T18:07:29.014Z,70.01
2023-02-24T18:09:56.036Z,69.97
2023-02-24T18:12:24.545Z,69.95
2023-02-24T18:15:02.400Z,70.23
2023-02-24T18:17:34.230Z,70.04
2023-02-24T18:20:01.071Z,70.02
2023-02-24T18:22:27.886Z,70.08
2023-02-24T18:24:54.736Z,70.16
2023-02-24T18:27:22.221Z,70.08
2023-02-24T18:29:49.045Z,70.13
2023-02-24T18:32:16.100Z,70.19
2023-02-24T18:34:43.004Z,70.06
2023-02-24T18:37:09.918Z,70.07
2023-02-24T18:39:36.730Z,70.14
2023-02-24T18:42:03.666Z,70.12
2023-02-24T18:44:31.096Z,69.90
2023-02-24T18:46:57.931Z,69.87
2023-02-24T18:49:24.775Z,69.81
2023-02-24T18:51:51.566Z,70.01
2023-02-24T18:54:18.440Z,69.81
2023-02-24T18:56:45.223Z,69.91
2023-02-24T18:59:12.072Z,69.83
2023-02-24T19:01:39.716Z,70.07
2023-02-24T19:04:08.750Z,70.06
2023-02-24T19:06:36.476Z,70.04
2023-02-24T19:09:12.444Z,69.80
2023-02-24T19:11:40.841Z,69.92
2023-02-24T19:14:12.001Z,70.16
2023-02-24T19:16:38.984Z,69.94
2023-02-24T19:19:06.103Z,70.21
2023-02-24T19:21:33.971Z,70.24
2023-02-24T19:24:07.909Z,70.36
2023-02-24T19:26:34.770Z,70.37
2023-02-24T19:29:02.265Z,70.69
2023-02-24T19:31:31.425Z,70.59
2023-02-24T19:34:08.061Z,70.43
2023-02-24T19:36:36.743Z,70.50
2023-02-24T19:39:05.803Z,70.35
2023-02-24T19:41:32.677Z,70.32
2023-02-24T19:43:59.564Z,70.53
2023-02-24T19:46:26.781Z,70.50
2023-02-24T19:48:56.400Z,70.58
2023-02-24T19:51:24.473Z,70.42
2023-02-24T19:53:57.099Z,70.45
2023-02-24T19:56:30.829Z,70.54
2023-02-24T19:58:59.818Z,70.34
2023-02-24T20:01:28.880Z,70.20
2023-02-24T20:03:59.224Z,70.20
2023-02-24T20:06:32.056Z,70.21
2023-02-24T20:09:00.723Z,70.13
2023-02-24T20:11:32.815Z,70.43
2023-02-24T20:13:59.668Z,70.51
2023-02-24T20:16:28.592Z,70.42
2023-02-24T20:18:55.597Z,70.55
2023-02-24T20:21:22.771Z,70.47
2023-02-24T20:23:49.569Z,70.21
2023-02-24T20:26:17.061Z,69.80
2023-02-24T20:28:46.923Z,70.09
2023-02-24T20:31:19.111Z,70.26
2023-02-24T20:33:47.631Z,70.28
2023-02-24T20:36:25.142Z,70.24
2023-02-24T20:38:52.943Z,70.43
2023-02-24T20:41:21.444Z,70.12
2023-02-24T20:43:48.970Z,70.68
2023-02-24T20:46:28.708Z,70.37
2023-02-24T20:49:02.744Z,70.35
2023-02-24T20:51:31.085Z,70.40
2023-02-24T20:53:59.079Z,70.48
2023-02-24T20:56:29.224Z,70.39
2023-02-24T20:59:18.330Z,70.15
2023-02-24T21:01:47.716Z,70.40
2023-02-24T21:04:18.668Z,70.42
2023-02-24T21:06:47.740Z,70.65
2023-02-24T21:09:15.778Z,70.36
2023-02-24T21:11:42.567Z,70.55
2023-02-24T21:14:16.543Z,70.45
2023-02-24T21:16:45.635Z,70.45
2023-02-24T21:19:12.519Z,70.62
2023-02-24T21:21:39.281Z,70.81
2023-02-24T21:24:06.785Z,70.42
2023-02-24T21:26:33.608Z,70.48
2023-02-24T21:29:00.364Z,70.74
2023-02-24T21:31:28.086Z,70.63
2023-02-24T21:33:55.909Z,70.38
2023-02-24T21:36:25.674Z,70.25
2023-02-24T21:38:54.213Z,70.61
2023-02-24T21:41:22.274Z,70.47
2023-02-24T21:43:54.672Z,70.17
2023-02-24T21:46:22.365Z,70.42
2023-02-24T21:48:57.868Z,70.18
2023-02-24T21:51:26.725Z,70.03
2023-02-24T21:53:56.736Z,70.09
2023-02-24T21:56:27.810Z,69.81
2023-02-24T21:58:59.995Z,69.96
2023-02-24T22:01:35.578Z,70.36
2023-02-24T22:04:06.492Z,70.10
2023-02-24T22:06:36.240Z,70.19
2023-02-24T22:09:06.924Z,70.33
2023-02-24T22:11:37.636Z,70.21
2023-02-24T22:14:11.281Z,70.08
2023-02-24T22:16:39.008Z,70.67
2023-02-24T22:19:06.380Z,70.44
2023-02-24T22:21:33.342Z,70.43
2023-02-24T22:24:02.905Z,70.35
2023-02-24T22:26:31.804Z,70.38
2023-02-24T22:28:59.882Z,70.39
2023-02-24T22:31:31.203Z,70.30
2023-02-24T22:33:58.749Z,70.54
2023-02-24T22:36:33.543Z,70.22
2023-02-24T22:39:01.558Z,70.29
2023-02-24T22:41:31.800Z,70.06
2023-02-24T22:43:59.459Z,70.20
2023-02-24T22:46:30.775Z,70.23
2023-02-24T22:48:58.408Z,70.17
2023-02-24T22:51:26.597Z,70.26
2023-02-24T22:53:53.692Z,70.44
2023-02-24T22:56:25.342Z,70.06
2023-02-24T22:58:52.655Z,70.21
2023-02-24T23:01:24.266Z,70.19
2023-02-24T23:03:52.007Z,70.18
2023-02-24T23:06:24.717Z,70.32
2023-02-24T23:08:52.570Z,70.48
2023-02-24T23:11:29.734Z,70.47
2023-02-24T23:14:00.472Z,70.33
2023-02-24T23:16:31.609Z,70.35
2023-02-24T23:19:01.798Z,70.48
2023-02-24T23:21:40.916Z,70.27
2023-02-24T23:24:10.777Z,70.43
2023-02-24T23:26:53.843Z,70.31
2023-02-24T23:29:22.862Z,70.44
2023-02-24T23:31:50.222Z,70.39
2023-02-24T23:34:17.095Z,70.19
2023-02-24T23:36:46.667Z,70.25
2023-02-24T23:39:16.382Z,70.46
2023-02-24T23:41:43.417Z,70.10
2023-02-24T23:44:10.459Z,70.04
2023-02-24T23:46:37.355Z,70.18
2023-02-24T23:49:05.200Z,70.28
2023-02-24T23:51:47.645Z,70.03
2023-02-24T23:54:19.048Z,70.27
2023-02-24T23:56:46.336Z,70.19
2023-02-24T23:59:13.427Z,70.28
